sensor_id;sensor_type;location;lat;lon;timestamp;P1;durP1;ratioP1;P2;durP2;ratioP2
23300;SDS011;11819;51.394;12.340;2023-04-07T00:02:24;29.83;;;22.23;;
23300;SDS011;11819;51.394;12.340;2023-04-07T00:04:51;28.10;;;21.87;;
23300;SDS011;11819;51.394;12.340;2023-04-07T00:07:16;29.63;;;23.10;;
23300;SDS011;11819;51.394;12.340;2023-04-07T00:09:42;29.97;;;22.87;;
23300;SDS011;11819;51.394;12.340;2023-04-07T00:12:07;29.20;;;22.30;;
23300;SDS011;11819;51.394;12.340;2023-04-07T00:14:33;32.10;;;23.37;;
23300;SDS011;11819;51.394;12.340;2023-04-07T00:16:59;30.73;;;22.23;;
23300;SDS011;11819;51.394;12.340;2023-04-07T00:19:25;31.80;;;23.37;;
23300;SDS011;11819;51.394;12.340;2023-04-07T00:21:52;30.90;;;22.07;;
23300;SDS011;11819;51.394;12.340;2023-04-07T00:24:18;31.40;;;22.37;;
23300;SDS011;11819;51.394;12.340;2023-04-07T00:26:45;32.40;;;23.50;;
23300;SDS011;11819;51.394;12.340;2023-04-07T00:29:10;30.87;;;23.07;;
23300;SDS011;11819;51.394;12.340;2023-04-07T00:31:36;30.97;;;23.40;;
23300;SDS011;11819;51.394;12.340;2023-04-07T00:34:02;33.30;;;23.27;;
23300;SDS011;11819;51.394;12.340;2023-04-07T00:36:28;42.23;;;24.27;;
23300;SDS011;11819;51.394;12.340;2023-04-07T00:38:55;33.30;;;23.37;;
23300;SDS011;11819;51.394;12.340;2023-04-07T00:41:21;30.77;;;22.77;;
23300;SDS011;11819;51.394;12.340;2023-04-07T00:43:48;30.23;;;23.07;;
23300;SDS011;11819;51.394;12.340;2023-04-07T00:46:14;31.53;;;23.57;;
23300;SDS011;11819;51.394;12.340;2023-04-07T00:48:40;33.13;;;23.07;;
23300;SDS011;11819;51.394;12.340;2023-04-07T00:51:06;34.97;;;23.80;;
23300;SDS011;11819;51.394;12.340;2023-04-07T00:53:31;35.70;;;23.20;;
23300;SDS011;11819;51.394;12.340;2023-04-07T00:55:57;32.87;;;23.73;;
23300;SDS011;11819;51.394;12.340;2023-04-07T00:58:26;30.47;;;22.03;;
23300;SDS011;11819;51.394;12.340;2023-04-07T01:01:08;28.80;;;21.10;;
23300;SDS011;11819;51.394;12.340;2023-04-07T01:03:57;30.77;;;21.40;;
23300;SDS011;11819;51.394;12.340;2023-04-07T01:06:29;32.40;;;22.13;;
23300;SDS011;11819;51.394;12.340;2023-04-07T01:09:01;30.23;;;21.43;;
23300;SDS011;11819;51.394;12.340;2023-04-07T01:14:39;27.13;;;19.40;;
23300;SDS011;11819;51.394;12.340;2023-04-07T01:17:41;28.57;;;20.13;;
23300;SDS011;11819;51.394;12.340;2023-04-07T01:20:11;28.83;;;19.43;;
23300;SDS011;11819;51.394;12.340;2023-04-07T01:22:42;26.97;;;19.50;;
23300;SDS011;11819;51.394;12.340;2023-04-07T01:25:16;26.83;;;20.23;;
23300;SDS011;11819;51.394;12.340;2023-04-07T01:30:46;26.23;;;18.87;;
23300;SDS011;11819;51.394;12.340;2023-04-07T01:33:13;23.37;;;19.30;;
23300;SDS011;11819;51.394;12.340;2023-04-07T01:35:41;29.33;;;19.13;;
23300;SDS011;11819;51.394;12.340;2023-04-07T01:38:09;24.83;;;18.97;;
23300;SDS011;11819;51.394;12.340;2023-04-07T01:40:35;28.03;;;20.07;;
23300;SDS011;11819;51.394;12.340;2023-04-07T01:43:03;26.80;;;19.60;;
23300;SDS011;11819;51.394;12.340;2023-04-07T01:45:30;26.83;;;19.57;;
23300;SDS011;11819;51.394;12.340;2023-04-07T01:47:59;28.47;;;19.33;;
23300;SDS011;11819;51.394;12.340;2023-04-07T01:50:25;25.00;;;18.53;;
23300;SDS011;11819;51.394;12.340;2023-04-07T01:52:52;27.37;;;19.60;;
23300;SDS011;11819;51.394;12.340;2023-04-07T01:55:18;25.50;;;18.83;;
23300;SDS011;11819;51.394;12.340;2023-04-07T01:57:55;26.80;;;19.27;;
23300;SDS011;11819;51.394;12.340;2023-04-07T02:00:20;25.30;;;18.23;;
23300;SDS011;11819;51.394;12.340;2023-04-07T02:02:51;24.93;;;18.50;;
23300;SDS011;11819;51.394;12.340;2023-04-07T02:05:24;25.93;;;18.53;;
23300;SDS011;11819;51.394;12.340;2023-04-07T02:07:57;26.50;;;19.50;;
23300;SDS011;11819;51.394;12.340;2023-04-07T02:10:28;26.90;;;18.47;;
23300;SDS011;11819;51.394;12.340;2023-04-07T02:13:00;25.97;;;18.97;;
23300;SDS011;11819;51.394;12.340;2023-04-07T02:15:29;26.50;;;18.60;;
23300;SDS011;11819;51.394;12.340;2023-04-07T02:17:56;23.97;;;17.30;;
23300;SDS011;11819;51.394;12.340;2023-04-07T02:24:12;24.40;;;17.57;;
23300;SDS011;11819;51.394;12.340;2023-04-07T02:26:37;25.43;;;17.43;;
23300;SDS011;11819;51.394;12.340;2023-04-07T02:29:03;23.77;;;16.63;;
23300;SDS011;11819;51.394;12.340;2023-04-07T02:31:29;21.10;;;16.33;;
23300;SDS011;11819;51.394;12.340;2023-04-07T02:33:54;23.30;;;16.30;;
23300;SDS011;11819;51.394;12.340;2023-04-07T02:36:20;23.77;;;16.57;;
23300;SDS011;11819;51.394;12.340;2023-04-07T02:38:46;22.73;;;16.03;;
23300;SDS011;11819;51.394;12.340;2023-04-07T02:41:11;20.20;;;15.63;;
23300;SDS011;11819;51.394;12.340;2023-04-07T02:43:37;20.70;;;15.13;;
23300;SDS011;11819;51.394;12.340;2023-04-07T02:46:03;23.80;;;16.03;;
23300;SDS011;11819;51.394;12.340;2023-04-07T02:48:28;22.37;;;16.47;;
23300;SDS011;11819;51.394;12.340;2023-04-07T02:50:54;20.00;;;15.87;;
23300;SDS011;11819;51.394;12.340;2023-04-07T02:53:20;19.17;;;15.30;;
23300;SDS011;11819;51.394;12.340;2023-04-07T02:55:45;19.63;;;14.97;;
23300;SDS011;11819;51.394;12.340;2023-04-07T02:58:11;21.13;;;15.97;;
23300;SDS011;11819;51.394;12.340;2023-04-07T03:00:42;22.50;;;15.90;;
23300;SDS011;11819;51.394;12.340;2023-04-07T03:03:11;19.97;;;15.30;;
23300;SDS011;11819;51.394;12.340;2023-04-07T03:05:43;22.57;;;15.03;;
23300;SDS011;11819;51.394;12.340;2023-04-07T03:08:10;21.77;;;15.60;;
23300;SDS011;11819;51.394;12.340;2023-04-07T03:10:37;19.63;;;14.87;;
23300;SDS011;11819;51.394;12.340;2023-04-07T03:13:03;19.80;;;14.90;;
23300;SDS011;11819;51.394;12.340;2023-04-07T03:15:29;20.23;;;15.70;;
23300;SDS011;11819;51.394;12.340;2023-04-07T03:17:55;22.07;;;15.80;;
23300;SDS011;11819;51.394;12.340;2023-04-07T03:20:21;21.83;;;15.27;;
23300;SDS011;11819;51.394;12.340;2023-04-07T03:22:47;18.53;;;14.40;;
23300;SDS011;11819;51.394;12.340;2023-04-07T03:25:25;20.23;;;14.57;;
23300;SDS011;11819;51.394;12.340;2023-04-07T03:27:53;21.00;;;14.60;;
23300;SDS011;11819;51.394;12.340;2023-04-07T03:30:19;20.03;;;14.30;;
23300;SDS011;11819;51.394;12.340;2023-04-07T03:32:45;19.23;;;14.53;;
23300;SDS011;11819;51.394;12.340;2023-04-07T03:35:11;22.77;;;15.67;;
23300;SDS011;11819;51.394;12.340;2023-04-07T03:37:39;19.43;;;14.03;;
23300;SDS011;11819;51.394;12.340;2023-04-07T03:40:11;20.07;;;15.10;;
23300;SDS011;11819;51.394;12.340;2023-04-07T03:42:37;18.63;;;14.30;;
23300;SDS011;11819;51.394;12.340;2023-04-07T03:45:05;19.97;;;14.20;;
23300;SDS011;11819;51.394;12.340;2023-04-07T03:47:33;20.07;;;14.50;;
23300;SDS011;11819;51.394;12.340;2023-04-07T03:50:01;20.30;;;14.07;;
23300;SDS011;11819;51.394;12.340;2023-04-07T03:52:29;21.77;;;14.57;;
23300;SDS011;11819;51.394;12.340;2023-04-07T03:55:02;19.20;;;13.43;;
23300;SDS011;11819;51.394;12.340;2023-04-07T03:57:30;17.67;;;13.70;;
23300;SDS011;11819;51.394;12.340;2023-04-07T03:59:56;19.37;;;13.90;;
23300;SDS011;11819;51.394;12.340;2023-04-07T04:02:21;19.00;;;13.97;;
23300;SDS011;11819;51.394;12.340;2023-04-07T04:04:50;18.43;;;13.63;;
23300;SDS011;11819;51.394;12.340;2023-04-07T04:07:16;20.60;;;14.90;;
23300;SDS011;11819;51.394;12.340;2023-04-07T04:09:47;20.10;;;14.43;;
23300;SDS011;11819;51.394;12.340;2023-04-07T04:12:13;18.80;;;14.80;;
23300;SDS011;11819;51.394;12.340;2023-04-07T04:14:48;19.57;;;13.73;;
23300;SDS011;11819;51.394;12.340;2023-04-07T04:17:17;17.83;;;13.77;;
23300;SDS011;11819;51.394;12.340;2023-04-07T04:19:45;18.47;;;13.50;;
23300;SDS011;11819;51.394;12.340;2023-04-07T04:22:20;18.77;;;13.73;;
23300;SDS011;11819;51.394;12.340;2023-04-07T04:24:56;18.20;;;13.30;;
23300;SDS011;11819;51.394;12.340;2023-04-07T04:27:25;19.33;;;13.73;;
23300;SDS011;11819;51.394;12.340;2023-04-07T04:29:58;19.53;;;13.73;;
23300;SDS011;11819;51.394;12.340;2023-04-07T04:32:35;17.67;;;13.37;;
23300;SDS011;11819;51.394;12.340;2023-04-07T04:35:02;22.77;;;14.60;;
23300;SDS011;11819;51.394;12.340;2023-04-07T04:37:31;20.67;;;13.47;;
23300;SDS011;11819;51.394;12.340;2023-04-07T04:40:00;19.00;;;13.83;;
23300;SDS011;11819;51.394;12.340;2023-04-07T04:42:26;19.23;;;14.43;;
23300;SDS011;11819;51.394;12.340;2023-04-07T04:44:56;19.63;;;14.30;;
23300;SDS011;11819;51.394;12.340;2023-04-07T04:47:22;19.67;;;14.97;;
23300;SDS011;11819;51.394;12.340;2023-04-07T04:49:48;20.00;;;14.00;;
23300;SDS011;11819;51.394;12.340;2023-04-07T04:52:14;20.67;;;14.77;;
23300;SDS011;11819;51.394;12.340;2023-04-07T04:54:43;18.27;;;13.83;;
23300;SDS011;11819;51.394;12.340;2023-04-07T04:57:10;19.73;;;14.60;;
23300;SDS011;11819;51.394;12.340;2023-04-07T04:59:37;22.73;;;14.53;;
23300;SDS011;11819;51.394;12.340;2023-04-07T05:02:05;19.77;;;13.97;;
23300;SDS011;11819;51.394;12.340;2023-04-07T05:04:30;21.50;;;14.87;;
23300;SDS011;11819;51.394;12.340;2023-04-07T05:07:11;19.70;;;14.77;;
23300;SDS011;11819;51.394;12.340;2023-04-07T05:09:39;21.97;;;15.30;;
23300;SDS011;11819;51.394;12.340;2023-04-07T05:12:06;19.43;;;14.93;;
23300;SDS011;11819;51.394;12.340;2023-04-07T05:14:37;21.90;;;15.70;;
23300;SDS011;11819;51.394;12.340;2023-04-07T05:17:05;19.83;;;15.10;;
23300;SDS011;11819;51.394;12.340;2023-04-07T05:19:31;20.13;;;16.07;;
23300;SDS011;11819;51.394;12.340;2023-04-07T05:22:04;21.47;;;16.00;;
23300;SDS011;11819;51.394;12.340;2023-04-07T05:24:37;21.07;;;15.60;;
23300;SDS011;11819;51.394;12.340;2023-04-07T05:27:03;25.53;;;16.50;;
23300;SDS011;11819;51.394;12.340;2023-04-07T05:29:30;21.80;;;16.23;;
23300;SDS011;11819;51.394;12.340;2023-04-07T05:31:56;22.60;;;16.20;;
23300;SDS011;11819;51.394;12.340;2023-04-07T05:34:31;20.77;;;15.30;;
23300;SDS011;11819;51.394;12.340;2023-04-07T05:36:57;20.00;;;15.33;;
23300;SDS011;11819;51.394;12.340;2023-04-07T05:39:23;20.87;;;15.30;;
23300;SDS011;11819;51.394;12.340;2023-04-07T05:41:52;23.63;;;16.13;;
23300;SDS011;11819;51.394;12.340;2023-04-07T05:44:22;22.90;;;16.27;;
23300;SDS011;11819;51.394;12.340;2023-04-07T05:46:48;21.87;;;16.90;;
23300;SDS011;11819;51.394;12.340;2023-04-07T05:49:16;23.47;;;16.50;;
23300;SDS011;11819;51.394;12.340;2023-04-07T05:51:42;21.07;;;15.93;;
23300;SDS011;11819;51.394;12.340;2023-04-07T05:54:11;23.40;;;16.27;;
23300;SDS011;11819;51.394;12.340;2023-04-07T05:56:37;22.20;;;16.57;;
23300;SDS011;11819;51.394;12.340;2023-04-07T05:59:04;20.87;;;15.60;;
23300;SDS011;11819;51.394;12.340;2023-04-07T06:01:29;21.03;;;16.20;;
23300;SDS011;11819;51.394;12.340;2023-04-07T06:03:57;22.50;;;16.73;;
23300;SDS011;11819;51.394;12.340;2023-04-07T06:06:25;25.37;;;17.07;;
23300;SDS011;11819;51.394;12.340;2023-04-07T06:08:51;23.17;;;17.40;;
23300;SDS011;11819;51.394;12.340;2023-04-07T06:11:16;25.50;;;18.17;;
23300;SDS011;11819;51.394;12.340;2023-04-07T06:13:42;23.37;;;18.13;;
23300;SDS011;11819;51.394;12.340;2023-04-07T06:16:07;24.20;;;17.73;;
23300;SDS011;11819;51.394;12.340;2023-04-07T06:18:34;25.93;;;19.07;;
23300;SDS011;11819;51.394;12.340;2023-04-07T06:21:00;28.23;;;20.10;;
23300;SDS011;11819;51.394;12.340;2023-04-07T06:23:27;25.27;;;19.03;;
23300;SDS011;11819;51.394;12.340;2023-04-07T06:25:53;25.73;;;19.27;;
23300;SDS011;11819;51.394;12.340;2023-04-07T06:28:20;25.83;;;19.73;;
23300;SDS011;11819;51.394;12.340;2023-04-07T06:30:48;24.73;;;18.77;;
23300;SDS011;11819;51.394;12.340;2023-04-07T06:33:14;26.87;;;20.30;;
23300;SDS011;11819;51.394;12.340;2023-04-07T06:35:40;28.23;;;20.20;;
23300;SDS011;11819;51.394;12.340;2023-04-07T06:38:06;27.60;;;19.57;;
23300;SDS011;11819;51.394;12.340;2023-04-07T06:40:32;26.57;;;19.90;;
23300;SDS011;11819;51.394;12.340;2023-04-07T06:42:59;27.70;;;20.73;;
23300;SDS011;11819;51.394;12.340;2023-04-07T06:45:36;27.30;;;20.17;;
23300;SDS011;11819;51.394;12.340;2023-04-07T06:48:02;29.17;;;21.17;;
23300;SDS011;11819;51.394;12.340;2023-04-07T06:50:28;26.97;;;20.97;;
23300;SDS011;11819;51.394;12.340;2023-04-07T06:52:53;29.07;;;21.40;;
23300;SDS011;11819;51.394;12.340;2023-04-07T06:55:19;27.03;;;20.57;;
23300;SDS011;11819;51.394;12.340;2023-04-07T06:57:46;30.23;;;19.73;;
23300;SDS011;11819;51.394;12.340;2023-04-07T07:00:11;25.60;;;19.40;;
23300;SDS011;11819;51.394;12.340;2023-04-07T07:02:37;29.60;;;20.60;;
23300;SDS011;11819;51.394;12.340;2023-04-07T07:05:04;28.20;;;20.13;;
23300;SDS011;11819;51.394;12.340;2023-04-07T07:07:30;26.90;;;20.23;;
23300;SDS011;11819;51.394;12.340;2023-04-07T07:09:56;26.97;;;20.23;;
23300;SDS011;11819;51.394;12.340;2023-04-07T07:12:23;26.23;;;19.50;;
23300;SDS011;11819;51.394;12.340;2023-04-07T07:14:48;27.83;;;20.03;;
23300;SDS011;11819;51.394;12.340;2023-04-07T07:17:16;24.43;;;19.13;;
23300;SDS011;11819;51.394;12.340;2023-04-07T07:19:42;28.00;;;20.87;;
23300;SDS011;11819;51.394;12.340;2023-04-07T07:22:07;28.33;;;19.87;;
23300;SDS011;11819;51.394;12.340;2023-04-07T07:24:34;28.43;;;20.30;;
23300;SDS011;11819;51.394;12.340;2023-04-07T07:27:00;27.80;;;20.13;;
23300;SDS011;11819;51.394;12.340;2023-04-07T07:29:27;26.47;;;19.70;;
23300;SDS011;11819;51.394;12.340;2023-04-07T07:31:52;25.87;;;19.93;;
23300;SDS011;11819;51.394;12.340;2023-04-07T07:34:18;25.30;;;19.27;;
23300;SDS011;11819;51.394;12.340;2023-04-07T07:36:43;24.87;;;18.30;;
23300;SDS011;11819;51.394;12.340;2023-04-07T07:39:09;28.17;;;19.07;;
23300;SDS011;11819;51.394;12.340;2023-04-07T07:41:35;23.87;;;18.17;;
23300;SDS011;11819;51.394;12.340;2023-04-07T07:44:01;23.50;;;18.50;;
23300;SDS011;11819;51.394;12.340;2023-04-07T07:46:27;22.93;;;17.10;;
23300;SDS011;11819;51.394;12.340;2023-04-07T07:48:53;22.93;;;16.87;;
23300;SDS011;11819;51.394;12.340;2023-04-07T07:51:18;23.60;;;16.73;;
23300;SDS011;11819;51.394;12.340;2023-04-07T07:53:45;24.93;;;17.77;;
23300;SDS011;11819;51.394;12.340;2023-04-07T07:56:11;22.70;;;16.77;;
23300;SDS011;11819;51.394;12.340;2023-04-07T07:58:39;20.70;;;16.53;;
23300;SDS011;11819;51.394;12.340;2023-04-07T08:01:05;24.77;;;17.57;;
23300;SDS011;11819;51.394;12.340;2023-04-07T08:03:32;22.77;;;16.60;;
23300;SDS011;11819;51.394;12.340;2023-04-07T08:05:57;21.53;;;15.63;;
23300;SDS011;11819;51.394;12.340;2023-04-07T08:08:24;23.73;;;17.20;;
23300;SDS011;11819;51.394;12.340;2023-04-07T08:10:49;22.03;;;15.63;;
23300;SDS011;11819;51.394;12.340;2023-04-07T08:13:15;21.13;;;16.17;;
23300;SDS011;11819;51.394;12.340;2023-04-07T08:15:42;20.83;;;15.73;;
23300;SDS011;11819;51.394;12.340;2023-04-07T08:18:09;23.58;;;16.23;;
23300;SDS011;11819;51.394;12.340;2023-04-07T08:20:35;20.77;;;15.00;;
23300;SDS011;11819;51.394;12.340;2023-04-07T08:23:02;22.10;;;14.60;;
23300;SDS011;11819;51.394;12.340;2023-04-07T08:25:28;19.93;;;14.43;;
23300;SDS011;11819;51.394;12.340;2023-04-07T08:27:59;23.30;;;15.13;;
23300;SDS011;11819;51.394;12.340;2023-04-07T08:30:25;18.10;;;13.30;;
23300;SDS011;11819;51.394;12.340;2023-04-07T08:32:51;19.50;;;13.23;;
23300;SDS011;11819;51.394;12.340;2023-04-07T08:35:16;19.67;;;13.93;;
23300;SDS011;11819;51.394;12.340;2023-04-07T08:37:42;22.00;;;14.30;;
23300;SDS011;11819;51.394;12.340;2023-04-07T08:40:08;19.25;;;14.07;;
23300;SDS011;11819;51.394;12.340;2023-04-07T08:42:34;19.58;;;14.13;;
23300;SDS011;11819;51.394;12.340;2023-04-07T08:45:09;20.63;;;14.13;;
23300;SDS011;11819;51.394;12.340;2023-04-07T08:47:35;21.20;;;14.85;;
23300;SDS011;11819;51.394;12.340;2023-04-07T08:50:03;20.85;;;15.10;;
23300;SDS011;11819;51.394;12.340;2023-04-07T08:52:33;23.30;;;15.20;;
23300;SDS011;11819;51.394;12.340;2023-04-07T08:55:05;22.65;;;15.95;;
23300;SDS011;11819;51.394;12.340;2023-04-07T08:57:33;22.75;;;16.50;;
23300;SDS011;11819;51.394;12.340;2023-04-07T09:00:01;21.60;;;16.23;;
23300;SDS011;11819;51.394;12.340;2023-04-07T09:02:48;19.90;;;15.60;;
23300;SDS011;11819;51.394;12.340;2023-04-07T09:05:17;21.00;;;16.20;;
23300;SDS011;11819;51.394;12.340;2023-04-07T09:07:43;21.75;;;16.13;;
23300;SDS011;11819;51.394;12.340;2023-04-07T09:10:09;23.77;;;16.67;;
23300;SDS011;11819;51.394;12.340;2023-04-07T09:12:35;21.83;;;14.98;;
23300;SDS011;11819;51.394;12.340;2023-04-07T09:15:00;20.98;;;15.00;;
23300;SDS011;11819;51.394;12.340;2023-04-07T09:17:29;19.35;;;14.45;;
23300;SDS011;11819;51.394;12.340;2023-04-07T09:19:58;20.92;;;14.50;;
23300;SDS011;11819;51.394;12.340;2023-04-07T09:25:14;19.27;;;13.13;;
23300;SDS011;11819;51.394;12.340;2023-04-07T09:27:52;17.42;;;13.30;;
23300;SDS011;11819;51.394;12.340;2023-04-07T09:30:25;17.23;;;12.68;;
23300;SDS011;11819;51.394;12.340;2023-04-07T09:32:53;17.80;;;12.98;;
23300;SDS011;11819;51.394;12.340;2023-04-07T09:35:19;17.23;;;12.57;;
23300;SDS011;11819;51.394;12.340;2023-04-07T09:38:10;17.05;;;11.98;;
23300;SDS011;11819;51.394;12.340;2023-04-07T09:40:35;17.50;;;11.57;;
23300;SDS011;11819;51.394;12.340;2023-04-07T09:43:01;17.13;;;13.43;;
23300;SDS011;11819;51.394;12.340;2023-04-07T09:45:29;16.73;;;12.15;;
23300;SDS011;11819;51.394;12.340;2023-04-07T09:48:04;16.95;;;13.32;;
23300;SDS011;11819;51.394;12.340;2023-04-07T09:50:41;18.95;;;13.82;;
23300;SDS011;11819;51.394;12.340;2023-04-07T09:53:09;18.80;;;14.40;;
23300;SDS011;11819;51.394;12.340;2023-04-07T09:55:35;19.30;;;14.13;;
23300;SDS011;11819;51.394;12.340;2023-04-07T09:58:03;20.58;;;14.07;;
23300;SDS011;11819;51.394;12.340;2023-04-07T10:00:30;17.98;;;13.38;;
23300;SDS011;11819;51.394;12.340;2023-04-07T10:02:57;18.92;;;13.80;;
23300;SDS011;11819;51.394;12.340;2023-04-07T10:05:25;19.80;;;14.70;;
23300;SDS011;11819;51.394;12.340;2023-04-07T10:07:54;18.25;;;14.02;;
23300;SDS011;11819;51.394;12.340;2023-04-07T10:10:20;19.08;;;14.35;;
23300;SDS011;11819;51.394;12.340;2023-04-07T10:12:48;18.17;;;13.43;;
23300;SDS011;11819;51.394;12.340;2023-04-07T10:15:18;19.52;;;13.50;;
23300;SDS011;11819;51.394;12.340;2023-04-07T10:17:45;18.65;;;13.02;;
23300;SDS011;11819;51.394;12.340;2023-04-07T10:20:12;17.88;;;14.15;;
23300;SDS011;11819;51.394;12.340;2023-04-07T10:22:39;17.58;;;13.35;;
23300;SDS011;11819;51.394;12.340;2023-04-07T10:25:07;18.13;;;13.00;;
23300;SDS011;11819;51.394;12.340;2023-04-07T10:30:17;15.73;;;12.07;;
23300;SDS011;11819;51.394;12.340;2023-04-07T10:32:48;15.15;;;12.30;;
23300;SDS011;11819;51.394;12.340;2023-04-07T10:35:27;15.13;;;11.70;;
23300;SDS011;11819;51.394;12.340;2023-04-07T10:38:13;17.02;;;12.57;;
23300;SDS011;11819;51.394;12.340;2023-04-07T10:40:41;18.88;;;12.23;;
23300;SDS011;11819;51.394;12.340;2023-04-07T10:43:08;16.38;;;12.57;;
23300;SDS011;11819;51.394;12.340;2023-04-07T10:48:14;18.23;;;12.15;;
23300;SDS011;11819;51.394;12.340;2023-04-07T10:50:44;15.48;;;11.88;;
23300;SDS011;11819;51.394;12.340;2023-04-07T10:53:14;16.33;;;12.38;;
23300;SDS011;11819;51.394;12.340;2023-04-07T11:03:31;18.02;;;13.18;;
23300;SDS011;11819;51.394;12.340;2023-04-07T11:06:15;17.63;;;13.27;;
23300;SDS011;11819;51.394;12.340;2023-04-07T11:08:45;18.40;;;13.60;;
23300;SDS011;11819;51.394;12.340;2023-04-07T11:11:12;18.00;;;13.02;;
23300;SDS011;11819;51.394;12.340;2023-04-07T11:13:45;17.02;;;13.43;;
23300;SDS011;11819;51.394;12.340;2023-04-07T11:16:13;16.95;;;12.93;;
23300;SDS011;11819;51.394;12.340;2023-04-07T11:18:40;20.55;;;12.82;;
23300;SDS011;11819;51.394;12.340;2023-04-07T11:21:09;19.02;;;13.27;;
23300;SDS011;11819;51.394;12.340;2023-04-07T11:26:09;16.40;;;12.55;;
23300;SDS011;11819;51.394;12.340;2023-04-07T11:28:50;16.92;;;12.80;;
23300;SDS011;11819;51.394;12.340;2023-04-07T11:31:25;15.98;;;11.88;;
23300;SDS011;11819;51.394;12.340;2023-04-07T11:33:54;18.10;;;12.02;;
23300;SDS011;11819;51.394;12.340;2023-04-07T11:36:28;15.85;;;11.55;;
23300;SDS011;11819;51.394;12.340;2023-04-07T11:38:58;17.08;;;12.70;;
23300;SDS011;11819;51.394;12.340;2023-04-07T11:41:26;16.25;;;12.13;;
23300;SDS011;11819;51.394;12.340;2023-04-07T11:44:06;16.67;;;12.38;;
23300;SDS011;11819;51.394;12.340;2023-04-07T11:46:33;17.13;;;12.60;;
23300;SDS011;11819;51.394;12.340;2023-04-07T11:49:07;17.52;;;12.18;;
23300;SDS011;11819;51.394;12.340;2023-04-07T11:51:34;16.98;;;12.23;;
23300;SDS011;11819;51.394;12.340;2023-04-07T11:53:59;15.52;;;11.80;;
23300;SDS011;11819;51.394;12.340;2023-04-07T11:56:25;15.02;;;11.57;;
23300;SDS011;11819;51.394;12.340;2023-04-07T11:58:53;15.95;;;11.15;;
23300;SDS011;11819;51.394;12.340;2023-04-07T12:01:19;15.60;;;11.02;;
23300;SDS011;11819;51.394;12.340;2023-04-07T12:04:01;14.85;;;11.65;;
23300;SDS011;11819;51.394;12.340;2023-04-07T12:06:34;15.82;;;11.85;;
23300;SDS011;11819;51.394;12.340;2023-04-07T12:09:05;17.10;;;11.77;;
23300;SDS011;11819;51.394;12.340;2023-04-07T12:11:32;15.75;;;11.35;;
23300;SDS011;11819;51.394;12.340;2023-04-07T12:14:00;17.40;;;12.00;;
23300;SDS011;11819;51.394;12.340;2023-04-07T12:16:28;14.90;;;11.18;;
23300;SDS011;11819;51.394;12.340;2023-04-07T12:18:55;17.45;;;11.98;;
23300;SDS011;11819;51.394;12.340;2023-04-07T12:21:21;15.30;;;10.95;;
23300;SDS011;11819;51.394;12.340;2023-04-07T12:23:49;14.23;;;11.13;;
23300;SDS011;11819;51.394;12.340;2023-04-07T12:26:15;15.07;;;10.82;;
23300;SDS011;11819;51.394;12.340;2023-04-07T12:28:41;18.20;;;11.98;;
23300;SDS011;11819;51.394;12.340;2023-04-07T12:31:07;14.90;;;11.50;;
23300;SDS011;11819;51.394;12.340;2023-04-07T12:33:32;16.25;;;11.68;;
23300;SDS011;11819;51.394;12.340;2023-04-07T12:35:58;14.02;;;11.45;;
23300;SDS011;11819;51.394;12.340;2023-04-07T12:38:25;15.73;;;11.93;;
23300;SDS011;11819;51.394;12.340;2023-04-07T12:40:51;16.35;;;12.13;;
23300;SDS011;11819;51.394;12.340;2023-04-07T12:43:17;15.80;;;12.13;;
23300;SDS011;11819;51.394;12.340;2023-04-07T12:45:42;14.75;;;11.52;;
23300;SDS011;11819;51.394;12.340;2023-04-07T12:48:08;13.70;;;11.27;;
23300;SDS011;11819;51.394;12.340;2023-04-07T12:50:35;16.17;;;12.00;;
23300;SDS011;11819;51.394;12.340;2023-04-07T12:53:01;17.85;;;12.23;;
23300;SDS011;11819;51.394;12.340;2023-04-07T12:55:30;15.55;;;12.68;;
23300;SDS011;11819;51.394;12.340;2023-04-07T12:57:58;14.25;;;11.07;;
23300;SDS011;11819;51.394;12.340;2023-04-07T13:00:24;14.82;;;11.50;;
23300;SDS011;11819;51.394;12.340;2023-04-07T13:02:50;13.38;;;11.10;;
23300;SDS011;11819;51.394;12.340;2023-04-07T13:05:15;13.90;;;11.18;;
23300;SDS011;11819;51.394;12.340;2023-04-07T13:07:42;16.17;;;12.70;;
23300;SDS011;11819;51.394;12.340;2023-04-07T13:10:08;13.32;;;11.68;;
23300;SDS011;11819;51.394;12.340;2023-04-07T13:12:34;15.07;;;12.80;;
23300;SDS011;11819;51.394;12.340;2023-04-07T13:15:00;15.48;;;12.23;;
23300;SDS011;11819;51.394;12.340;2023-04-07T13:17:28;15.50;;;12.48;;
23300;SDS011;11819;51.394;12.340;2023-04-07T13:19:54;15.43;;;12.20;;
23300;SDS011;11819;51.394;12.340;2023-04-07T13:22:21;14.63;;;11.52;;
23300;SDS011;11819;51.394;12.340;2023-04-07T13:24:46;15.30;;;12.82;;
23300;SDS011;11819;51.394;12.340;2023-04-07T13:27:14;14.88;;;11.77;;
23300;SDS011;11819;51.394;12.340;2023-04-07T13:29:40;14.60;;;11.48;;
23300;SDS011;11819;51.394;12.340;2023-04-07T13:32:06;15.65;;;11.82;;
23300;SDS011;11819;51.394;12.340;2023-04-07T13:34:35;14.57;;;11.48;;
23300;SDS011;11819;51.394;12.340;2023-04-07T13:37:04;13.93;;;11.05;;
23300;SDS011;11819;51.394;12.340;2023-04-07T13:39:31;13.30;;;11.40;;
23300;SDS011;11819;51.394;12.340;2023-04-07T13:41:57;15.02;;;11.23;;
23300;SDS011;11819;51.394;12.340;2023-04-07T13:44:24;14.13;;;10.50;;
23300;SDS011;11819;51.394;12.340;2023-04-07T13:46:51;14.25;;;10.98;;
23300;SDS011;11819;51.394;12.340;2023-04-07T13:49:17;12.77;;;10.10;;
23300;SDS011;11819;51.394;12.340;2023-04-07T13:51:43;12.20;;;10.10;;
23300;SDS011;11819;51.394;12.340;2023-04-07T13:54:09;12.98;;;10.00;;
23300;SDS011;11819;51.394;12.340;2023-04-07T13:56:35;14.98;;;11.38;;
23300;SDS011;11819;51.394;12.340;2023-04-07T13:59:03;12.15;;;10.60;;
23300;SDS011;11819;51.394;12.340;2023-04-07T14:01:31;13.07;;;10.70;;
23300;SDS011;11819;51.394;12.340;2023-04-07T14:03:58;12.77;;;10.52;;
23300;SDS011;11819;51.394;12.340;2023-04-07T14:06:23;12.32;;;10.25;;
23300;SDS011;11819;51.394;12.340;2023-04-07T14:08:50;11.60;;;9.80;;
23300;SDS011;11819;51.394;12.340;2023-04-07T14:11:18;13.40;;;11.10;;
23300;SDS011;11819;51.394;12.340;2023-04-07T14:13:44;14.18;;;10.32;;
23300;SDS011;11819;51.394;12.340;2023-04-07T14:16:11;12.57;;;11.05;;
23300;SDS011;11819;51.394;12.340;2023-04-07T14:18:37;13.93;;;10.65;;
23300;SDS011;11819;51.394;12.340;2023-04-07T14:21:03;12.35;;;10.38;;
23300;SDS011;11819;51.394;12.340;2023-04-07T14:23:29;16.08;;;10.70;;
23300;SDS011;11819;51.394;12.340;2023-04-07T14:25:58;11.93;;;10.60;;
23300;SDS011;11819;51.394;12.340;2023-04-07T14:28:25;11.73;;;10.20;;
23300;SDS011;11819;51.394;12.340;2023-04-07T14:30:54;13.55;;;10.75;;
23300;SDS011;11819;51.394;12.340;2023-04-07T14:33:20;12.50;;;10.50;;
23300;SDS011;11819;51.394;12.340;2023-04-07T14:35:46;13.77;;;10.00;;
23300;SDS011;11819;51.394;12.340;2023-04-07T14:38:12;12.38;;;9.95;;
23300;SDS011;11819;51.394;12.340;2023-04-07T14:40:39;12.50;;;9.60;;
23300;SDS011;11819;51.394;12.340;2023-04-07T14:43:05;12.40;;;9.40;;